Time;durP1;ratioP1;P1;durP2;ratioP2;P2;SDS_P1;SDS_P2;PMS_P1;PMS_P2;Temp;Humidity;BMP_temperature;BMP_pressure;BME280_temperature;BME280_humidity;BME280_pressure;Samples;Min_cycle;Max_cycle;Signal;HPM_P1;HPM_P2
2022/10/25 00:01:16;;;;;;;1999.90;999.90;;;;;;;14.49;100.00;98250.63;4972840;28;20085;-74
2022/10/25 00:03:41;;;;;;;1999.90;999.90;;;;;;;14.45;100.00;98249.63;4972976;28;20066;-74
2022/10/25 00:06:11;;;;;;;1999.90;999.90;;;;;;;14.39;100.00;98245.38;4972894;28;20027;-74
2022/10/25 00:08:37;;;;;;;1999.90;999.90;;;;;;;14.38;100.00;98211.53;4971098;28;20038;-75
2022/10/25 00:11:03;;;;;;;1999.90;999.90;;;;;;;14.32;100.00;98222.94;4971235;28;20023;-74
2022/10/25 00:13:29;;;;;;;1999.90;999.90;;;;;;;14.32;100.00;98223.75;4972422;28;20027;-76
2022/10/25 00:15:54;;;;;;;1999.90;999.90;;;;;;;14.24;100.00;98223.72;4973214;28;20101;-75
2022/10/25 00:18:20;;;;;;;1999.90;999.90;;;;;;;14.19;100.00;98229.34;4972632;28;20062;-75
2022/10/25 00:20:45;;;;;;;1999.90;999.90;;;;;;;14.18;100.00;98234.03;4971575;28;20057;-75
2022/10/25 00:23:12;;;;;;;1999.90;999.90;;;;;;;14.17;100.00;98242.59;4973454;28;20031;-74
2022/10/25 00:25:37;;;;;;;1999.90;999.90;;;;;;;14.17;100.00;98246.16;4972792;28;20030;-75
2022/10/25 00:28:03;;;;;;;1999.90;999.90;;;;;;;14.16;100.00;98241.75;4972468;28;20089;-75
2022/10/25 00:30:28;;;;;;;1999.90;999.90;;;;;;;14.17;100.00;98240.66;4972452;28;20027;-75
2022/10/25 00:32:54;;;;;;;1999.90;999.90;;;;;;;14.22;100.00;98225.97;4972328;28;20030;-75
2022/10/25 00:35:21;;;;;;;1999.90;999.90;;;;;;;14.19;100.00;98219.13;4971040;28;20062;-75
2022/10/25 00:37:47;;;;;;;1999.90;999.90;;;;;;;14.11;100.00;98233.66;4953145;28;20039;-75
2022/10/25 00:40:12;;;;;;;1999.90;999.90;;;;;;;14.30;100.00;98263.72;4953185;28;20031;-76
2022/10/25 00:42:38;;;;;;;1999.90;999.90;;;;;;;14.33;100.00;98257.63;4952766;29;20143;-76
2022/10/25 00:45:27;;;;;;;1999.90;999.90;;;;;;;14.18;100.00;98208.44;4952913;29;20804;-76
2022/10/25 00:48:03;;;;;;;1999.90;999.90;;;;;;;14.08;100.00;98222.44;4953321;28;20097;-76
2022/10/25 00:50:48;;;;;;;1999.90;999.90;;;;;;;14.18;100.00;98235.97;4951425;29;20035;-76
2022/10/25 00:53:19;;;;;;;1999.90;999.90;;;;;;;14.26;100.00;98246.22;4951574;28;20094;-78
2022/10/25 00:55:50;;;;;;;1999.90;999.90;;;;;;;14.14;100.00;98233.03;4951524;29;20042;-77
2022/10/25 00:58:22;;;;;;;1999.90;999.90;;;;;;;14.18;100.00;98227.72;4952967;28;20031;-76
2022/10/25 01:00:47;;;;;;;1999.90;999.90;;;;;;;14.11;100.00;98239.16;4953051;29;20051;-75
2022/10/25 01:03:15;;;;;;;1999.90;999.90;;;;;;;14.04;100.00;98227.75;4954818;29;20138;-74
2022/10/25 01:05:42;;;;;;;1999.90;999.90;;;;;;;14.08;100.00;98203.19;4955249;28;20508;-76
2022/10/25 01:08:07;;;;;;;1999.90;999.90;;;;;;;13.98;100.00;98203.44;4953545;28;20138;-77
2022/10/25 01:10:33;;;;;;;1999.90;999.90;;;;;;;14.03;100.00;98300.41;4953745;29;20441;-76
2022/10/25 01:13:00;;;;;;;1999.90;999.90;;;;;;;14.02;100.00;98344.72;4952311;29;20031;-76
2022/10/25 01:15:35;;;;;;;1999.90;999.90;;;;;;;14.06;100.00;98312.72;4953502;28;20489;-75
2022/10/25 01:18:08;;;;;;;1999.90;999.90;;;;;;;14.00;100.00;98243.28;4951909;29;20031;-77
2022/10/25 01:20:46;;;;;;;1999.90;999.90;;;;;;;14.00;100.00;98268.03;4952671;28;20031;-75
2022/10/25 01:23:25;;;;;;;1999.90;999.90;;;;;;;13.99;100.00;98258.13;4957801;28;20035;-76
2022/10/25 01:26:18;;;;;;;1999.90;999.90;;;;;;;13.86;100.00;98237.81;4958918;28;20094;-76
2022/10/25 01:29:29;;;;;;;1999.90;999.90;;;;;;;13.92;100.00;98220.06;4959150;29;20777;-76
2022/10/25 01:32:19;;;;;;;1999.90;999.90;;;;;;;13.99;100.00;98222.38;4959139;28;20156;-77
2022/10/25 01:34:55;;;;;;;1999.90;999.90;;;;;;;13.90;100.00;98230.56;4964694;28;20461;-76
2022/10/25 01:37:38;;;;;;;1999.90;999.90;;;;;;;13.95;100.00;98246.13;4977951;28;20030;-76
2022/10/25 01:40:28;;;;;;;1999.90;999.90;;;;;;;13.94;100.00;98256.31;4978133;28;20481;-76
2022/10/25 01:43:11;;;;;;;1999.90;999.90;;;;;;;13.88;100.00;98256.72;4983740;28;20492;-76
2022/10/25 01:45:45;;;;;;;1999.90;999.90;;;;;;;13.93;100.00;98245.63;4977806;28;20102;-76
2022/10/25 01:48:15;;;;;;;1999.90;999.90;;;;;;;13.97;100.00;98243.88;4978399;28;20034;-76
2022/10/25 01:50:44;;;;;;;1999.90;999.90;;;;;;;14.00;100.00;98242.44;4978040;28;20535;-76
2022/10/25 01:53:11;;;;;;;1999.90;999.90;;;;;;;13.89;100.00;98228.13;4978115;28;20726;-76
2022/10/25 01:55:52;;;;;;;1999.90;999.90;;;;;;;13.94;100.00;98226.03;4977832;28;20586;-76
2022/10/25 01:58:36;;;;;;;1999.90;999.90;;;;;;;14.03;100.00;98226.16;4977997;28;20030;-77
2022/10/25 02:01:17;;;;;;;1999.90;999.90;;;;;;;14.06;100.00;98231.03;4977849;28;20049;-76
2022/10/25 02:04:06;;;;;;;1999.90;999.90;;;;;;;14.03;100.00;98228.06;4977801;28;20506;-76
2022/10/25 02:06:53;;;;;;;1999.90;999.90;;;;;;;13.92;100.00;98222.00;4976668;28;20039;-76
2022/10/25 02:09:36;;;;;;;1999.90;999.90;;;;;;;13.93;100.00;98227.19;4976603;28;20089;-77
2022/10/25 02:12:06;;;;;;;1999.90;999.90;;;;;;;13.90;100.00;98216.81;4978265;28;20476;-76
2022/10/25 02:14:39;;;;;;;1999.90;999.90;;;;;;;14.03;100.00;98211.56;4969471;28;20038;-76
2022/10/25 02:17:16;;;;;;;1999.90;999.90;;;;;;;13.90;100.00;98214.06;4974110;28;20041;-77
2022/10/25 02:19:50;;;;;;;1999.90;999.90;;;;;;;13.78;100.00;98219.25;4977546;28;20392;-77
2022/10/25 02:22:20;;;;;;;1999.90;999.90;;;;;;;13.91;100.00;98228.59;4976223;28;20027;-76
2022/10/25 02:24:47;;;;;;;1999.90;999.90;;;;;;;13.98;100.00;98219.94;4976640;28;20058;-78
2022/10/25 02:27:14;;;;;;;1999.90;999.90;;;;;;;13.86;100.00;98214.97;4977668;28;20027;-78
2022/10/25 02:29:41;;;;;;;1999.90;999.90;;;;;;;13.80;100.00;98219.78;4977547;28;20097;-78
2022/10/25 02:32:07;;;;;;;1999.90;999.90;;;;;;;13.99;100.00;98221.56;4979669;28;20031;-78
2022/10/25 02:34:33;;;;;;;1999.90;999.90;;;;;;;13.93;100.00;98216.19;4981361;28;20041;-78
2022/10/25 02:36:59;;;;;;;1999.90;999.90;;;;;;;13.92;100.00;98205.50;4975211;28;20071;-75
2022/10/25 02:39:26;;;;;;;1999.90;999.90;;;;;;;13.79;100.00;98201.66;4970687;28;20015;-77
2022/10/25 02:41:52;;;;;;;1999.90;999.90;;;;;;;13.80;100.00;98203.28;4974411;28;20110;-77
2022/10/25 02:44:18;;;;;;;1999.90;999.90;;;;;;;13.83;100.00;98216.41;4974976;28;20114;-77
2022/10/25 02:46:43;;;;;;;1999.90;999.90;;;;;;;13.91;100.00;98217.59;4979425;28;20030;-77
2022/10/25 02:49:09;;;;;;;1999.90;999.90;;;;;;;13.90;100.00;98221.50;4979195;28;20030;-77
2022/10/25 02:51:34;;;;;;;1999.90;999.90;;;;;;;13.90;100.00;98205.81;4977958;28;20505;-77
2022/10/25 02:53:59;;;;;;;1999.90;999.90;;;;;;;13.83;100.00;98188.94;4974205;28;20085;-77
2022/10/25 02:56:25;;;;;;;1999.90;999.90;;;;;;;13.75;100.00;98197.09;4974203;28;20034;-76
2022/10/25 02:58:53;;;;;;;1999.90;999.90;;;;;;;13.74;100.00;98206.47;4972685;28;20125;-76
2022/10/25 03:01:20;;;;;;;1999.90;999.90;;;;;;;13.75;100.00;98214.38;4974179;28;20033;-77
2022/10/25 03:03:46;;;;;;;1999.90;999.90;;;;;;;13.80;100.00;98216.22;4973831;28;20030;-77
2022/10/25 03:06:12;;;;;;;1999.90;999.90;;;;;;;13.82;100.00;98214.78;4973920;28;20683;-77
2022/10/25 03:08:39;;;;;;;1999.90;999.90;;;;;;;13.75;100.00;98241.09;4972261;28;20022;-76
2022/10/25 03:11:06;;;;;;;1999.90;999.90;;;;;;;13.80;100.00;98228.03;4974154;28;20030;-77
2022/10/25 03:13:32;;;;;;;1999.90;999.90;;;;;;;13.76;100.00;98199.53;4973762;28;20050;-78
2022/10/25 03:15:57;;;;;;;1999.90;999.90;;;;;;;13.62;100.00;98198.75;4973602;28;20485;-76
2022/10/25 03:18:23;;;;;;;1999.90;999.90;;;;;;;13.69;100.00;98232.13;4972950;28;20026;-76
2022/10/25 03:20:48;;;;;;;1999.90;999.90;;;;;;;13.74;100.00;98245.78;4973708;28;20030;-75
2022/10/25 03:23:14;;;;;;;1999.90;999.90;;;;;;;13.77;100.00;98225.91;4973137;28;20619;-77
2022/10/25 03:25:40;;;;;;;1999.90;999.90;;;;;;;13.71;100.00;98207.09;4972092;28;20493;-78
2022/10/25 03:28:05;;;;;;;1999.90;999.90;;;;;;;13.63;100.00;98205.88;4973703;28;20026;-77
2022/10/25 03:30:31;;;;;;;1999.90;999.90;;;;;;;13.64;100.00;98228.69;4973574;28;20084;-77
2022/10/25 03:32:57;;;;;;;1999.90;999.90;;;;;;;13.57;100.00;98242.84;4972076;28;20496;-77
2022/10/25 03:35:23;;;;;;;1999.90;999.90;;;;;;;13.62;100.00;98248.25;4971966;28;20050;-76
2022/10/25 03:37:50;;;;;;;1999.90;999.90;;;;;;;13.68;100.00;98236.00;4973219;28;20228;-77
2022/10/25 03:40:16;;;;;;;1999.90;999.90;;;;;;;13.62;100.00;98220.75;4973182;28;20018;-77
2022/10/25 03:42:42;;;;;;;1999.90;999.90;;;;;;;13.65;100.00;98228.38;4973263;28;20030;-77
2022/10/25 03:45:07;;;;;;;1999.90;999.90;;;;;;;13.67;100.00;98234.38;4972550;28;20089;-77
2022/10/25 03:47:33;;;;;;;1999.90;999.90;;;;;;;13.58;100.00;98241.72;4967768;28;20031;-77
2022/10/25 03:49:59;;;;;;;1999.90;999.90;;;;;;;13.67;100.00;98237.13;4972933;28;20026;-77
2022/10/25 03:52:24;;;;;;;1999.90;999.90;;;;;;;13.71;100.00;98231.81;4972840;28;20117;-76
2022/10/25 03:54:49;;;;;;;1999.90;999.90;;;;;;;13.75;100.00;98241.88;4972858;28;20031;-77
2022/10/25 03:57:15;;;;;;;1999.90;999.90;;;;;;;13.75;100.00;98238.34;4973045;28;20035;-77
2022/10/25 03:59:40;;;;;;;1999.90;999.90;;;;;;;13.85;100.00;98236.16;4971510;28;20015;-77
2022/10/25 04:02:05;;;;;;;1999.90;999.90;;;;;;;13.89;100.00;98220.69;4972321;28;20041;-76
2022/10/25 04:04:31;;;;;;;1999.90;999.90;;;;;;;13.88;100.00;98230.03;4974924;28;20106;-75
2022/10/25 04:06:56;;;;;;;1999.90;999.90;;;;;;;13.76;100.00;98232.53;4972947;28;20630;-75
2022/10/25 04:09:21;;;;;;;1999.90;999.90;;;;;;;13.74;100.00;98243.03;4972601;28;20033;-76
2022/10/25 04:11:47;;;;;;;1999.90;999.90;;;;;;;13.60;100.00;98244.16;4972689;28;20066;-77
2022/10/25 04:14:13;;;;;;;1999.90;999.90;;;;;;;13.61;100.00;98256.78;4971359;28;20484;-78
2022/10/25 04:16:38;;;;;;;1999.90;999.90;;;;;;;13.58;100.00;98262.91;4977546;28;20030;-77
2022/10/25 04:19:04;;;;;;;1999.90;999.90;;;;;;;13.53;100.00;98269.34;4976462;28;20334;-78
2022/10/25 04:21:29;;;;;;;1999.90;999.90;;;;;;;13.42;100.00;98259.66;4972992;28;20121;-78
2022/10/25 04:23:54;;;;;;;1999.90;999.90;;;;;;;13.47;100.00;98256.00;4972672;28;20112;-79
2022/10/25 04:26:20;;;;;;;1999.90;999.90;;;;;;;13.50;100.00;98267.16;4973631;28;20077;-78
2022/10/25 04:28:50;;;;;;;1999.90;999.90;;;;;;;13.49;100.00;98262.00;4977270;28;20062;-78
2022/10/25 04:31:16;;;;;;;1999.90;999.90;;;;;;;13.45;100.00;98259.03;4979699;28;20057;-79
2022/10/25 04:33:41;;;;;;;1999.90;999.90;;;;;;;13.41;100.00;98264.31;4980278;28;20109;-80
2022/10/25 04:36:06;;;;;;;1999.90;999.90;;;;;;;13.38;100.00;98269.63;4978058;28;20030;-79
2022/10/25 04:38:32;;;;;;;1999.90;999.90;;;;;;;13.35;100.00;98253.75;4973390;28;20484;-79
2022/10/25 04:40:59;;;;;;;1999.90;999.90;;;;;;;13.41;100.00;98266.25;4975154;28;20030;-78
2022/10/25 04:43:26;;;;;;;1999.90;999.90;;;;;;;13.39;100.00;98271.25;4979642;28;20030;-77
2022/10/25 04:45:52;;;;;;;1999.90;999.90;;;;;;;13.35;100.00;98275.72;4980246;28;20373;-78
2022/10/25 04:48:18;;;;;;;1999.90;999.90;;;;;;;13.36;100.00;98263.63;4973924;28;20027;-79
2022/10/25 04:50:44;;;;;;;1999.90;999.90;;;;;;;13.36;100.00;98269.13;4976903;28;20085;-76
2022/10/25 04:53:09;;;;;;;1999.90;999.90;;;;;;;13.24;100.00;98257.81;4973982;28;20031;-77
2022/10/25 04:55:35;;;;;;;1999.90;999.90;;;;;;;13.29;100.00;98275.00;4973575;28;20089;-79
2022/10/25 04:58:00;;;;;;;1999.90;999.90;;;;;;;13.36;100.00;98277.38;4973393;28;20031;-78
2022/10/25 05:00:25;;;;;;;1999.90;999.90;;;;;;;13.34;100.00;98280.41;4976287;28;20031;-79
2022/10/25 05:02:52;;;;;;;1999.90;999.90;;;;;;;13.31;100.00;98275.50;4976393;28;20030;-78
2022/10/25 05:05:17;;;;;;;1999.90;999.90;;;;;;;13.40;100.00;98275.63;4974838;28;20030;-79
2022/10/25 05:07:43;;;;;;;1999.90;999.90;;;;;;;13.31;100.00;98270.03;4975016;28;20026;-79
2022/10/25 05:10:08;;;;;;;1999.90;999.90;;;;;;;13.23;100.00;98262.50;4975461;28;20059;-79
2022/10/25 05:12:34;;;;;;;1999.90;999.90;;;;;;;13.31;100.00;98269.22;4974986;28;20066;-79
2022/10/25 05:14:59;;;;;;;1999.90;999.90;;;;;;;13.33;100.00;98266.97;4976327;28;20031;-79
2022/10/25 05:17:24;;;;;;;1999.90;999.90;;;;;;;13.30;100.00;98267.59;4970996;28;20448;-78
2022/10/25 05:19:50;;;;;;;1999.90;999.90;;;;;;;13.33;100.00;98266.97;4968038;28;20421;-79
2022/10/25 05:22:15;;;;;;;1999.90;999.90;;;;;;;13.33;100.00;98272.47;4976620;28;20031;-78
2022/10/25 05:24:40;;;;;;;1999.90;999.90;;;;;;;13.21;100.00;98274.91;4973462;28;20027;-77
2022/10/25 05:27:06;;;;;;;1999.90;999.90;;;;;;;13.30;100.00;98286.81;4973206;28;20023;-78
2022/10/25 05:29:31;;;;;;;1999.90;999.90;;;;;;;13.33;100.00;98294.47;4973684;28;20110;-78
2022/10/25 05:31:56;;;;;;;1999.90;999.90;;;;;;;13.27;100.00;98312.97;4974619;28;20030;-78
2022/10/25 05:34:22;;;;;;;1999.90;999.90;;;;;;;13.30;100.00;98311.56;4976689;28;20034;-81
2022/10/25 05:36:47;;;;;;;1999.90;999.90;;;;;;;13.21;100.00;98318.88;4973641;28;20073;-77
2022/10/25 05:39:12;;;;;;;1999.90;999.90;;;;;;;13.12;100.00;98315.19;4971613;28;20035;-77
2022/10/25 05:41:38;;;;;;;1999.90;999.90;;;;;;;12.97;100.00;98301.72;4979097;28;20067;-86
2022/10/25 05:44:04;;;;;;;1999.90;999.90;;;;;;;13.02;100.00;98298.88;4987421;28;20126;-78
2022/10/25 05:46:30;;;;;;;1999.90;999.90;;;;;;;13.06;100.00;98281.47;4993369;28;20035;-83
2022/10/25 05:48:57;;;;;;;1999.90;999.90;;;;;;;13.06;100.00;98283.44;4993547;28;20058;-83
2022/10/25 05:51:25;;;;;;;1999.90;999.90;;;;;;;13.07;100.00;98299.59;4994492;28;20023;-84
2022/10/25 05:53:53;;;;;;;1999.90;999.90;;;;;;;13.07;100.00;98320.72;4997672;28;20018;-81
2022/10/25 05:56:20;;;;;;;1999.90;999.90;;;;;;;13.09;100.00;98304.81;4996839;28;20027;-79
2022/10/25 05:58:46;;;;;;;1999.90;999.90;;;;;;;13.13;100.00;98308.56;4995779;28;20018;-74
2022/10/25 06:01:15;;;;;;;1999.90;999.90;;;;;;;13.12;100.00;98317.94;4995856;28;20031;-82
2022/10/25 06:03:40;;;;;;;1999.90;999.90;;;;;;;13.13;100.00;98322.31;4978569;28;20671;-79
2022/10/25 06:06:08;;;;;;;1999.90;999.90;;;;;;;13.14;100.00;98324.75;4973890;28;20030;-77
2022/10/25 06:08:34;;;;;;;1999.90;999.90;;;;;;;13.20;100.00;98323.53;4976207;28;20027;-80
2022/10/25 06:11:05;;;;;;;1999.90;999.90;;;;;;;13.22;100.00;98328.72;4978980;28;20058;-79
2022/10/25 06:13:30;;;;;;;1999.90;999.90;;;;;;;13.26;100.00;98329.75;4979738;28;20038;-81
2022/10/25 06:15:56;;;;;;;1999.90;999.90;;;;;;;13.34;100.00;98335.34;4985624;28;20038;-80
2022/10/25 06:18:22;;;;;;;1999.90;999.90;;;;;;;13.44;100.00;98339.84;4983419;28;20031;-79
2022/10/25 06:20:47;;;;;;;1999.90;999.90;;;;;;;13.55;100.00;98341.28;4980004;28;20041;-78
2022/10/25 06:23:13;;;;;;;1999.90;999.90;;;;;;;13.42;100.00;98342.09;4983739;28;20041;-80
2022/10/25 06:25:38;;;;;;;1999.90;999.90;;;;;;;13.49;100.00;98345.25;4984201;28;20034;-80
2022/10/25 06:28:04;;;;;;;1999.90;999.90;;;;;;;13.52;100.00;98344.66;4980838;28;20030;-79
2022/10/25 06:30:31;;;;;;;1999.90;999.90;;;;;;;13.51;100.00;98342.19;4981029;28;20488;-78
2022/10/25 06:32:56;;;;;;;1999.90;999.90;;;;;;;13.56;100.00;98347.59;4983586;28;20023;-79
2022/10/25 06:35:22;;;;;;;1999.90;999.90;;;;;;;13.55;100.00;98345.97;4983127;28;20035;-79
2022/10/25 06:37:47;;;;;;;1999.90;999.90;;;;;;;13.62;100.00;98336.22;4988543;28;20054;-79
2022/10/25 06:40:15;;;;;;;1999.90;999.90;;;;;;;13.71;100.00;98337.13;4989480;28;20057;-75
2022/10/25 06:42:41;;;;;;;1999.90;999.90;;;;;;;13.76;100.00;98337.00;4987341;28;20046;-81
2022/10/25 06:45:07;;;;;;;1999.90;999.90;;;;;;;13.67;100.00;98336.09;4982355;28;20047;-81
2022/10/25 06:47:34;;;;;;;1999.90;999.90;;;;;;;13.80;100.00;98332.53;4977688;28;20540;-76
2022/10/25 06:49:59;;;;;;;1999.90;999.90;;;;;;;13.85;100.00;98340.66;4973417;28;20030;-78
2022/10/25 06:52:27;;;;;;;1999.90;999.90;;;;;;;13.87;100.00;98354.13;4966645;28;20027;-79
2022/10/25 06:54:52;;;;;;;1999.90;999.90;;;;;;;13.58;100.00;98351.66;4970354;28;20018;-78
2022/10/25 06:57:18;;;;;;;1999.90;999.90;;;;;;;13.53;100.00;98354.53;4967318;28;20108;-80
2022/10/25 06:59:44;;;;;;;1999.90;999.90;;;;;;;13.49;100.00;98352.69;4965784;28;20023;-79
2022/10/25 07:02:10;;;;;;;1999.90;999.90;;;;;;;13.60;100.00;98357.66;4965465;28;20023;-80
2022/10/25 07:04:35;;;;;;;1999.90;999.90;;;;;;;13.67;100.00;98371.00;4973284;28;20055;-83
2022/10/25 07:07:00;;;;;;;1999.90;999.90;;;;;;;13.67;100.00;98379.25;4990401;28;20027;-82
2022/10/25 07:09:26;;;;;;;1999.90;999.90;;;;;;;13.66;100.00;98374.88;4990064;28;20022;-79
2022/10/25 07:11:51;;;;;;;1999.90;999.90;;;;;;;13.54;100.00;98380.06;4973799;28;20421;-76
2022/10/25 07:14:16;;;;;;;1999.90;999.90;;;;;;;13.60;100.00;98384.34;4957526;28;20039;-78
2022/10/25 07:16:42;;;;;;;1999.90;999.90;;;;;;;13.58;100.00;98386.59;4961717;28;20497;-79
2022/10/25 07:19:10;;;;;;;1999.90;999.90;;;;;;;13.63;100.00;98391.97;4963965;28;20525;-78
2022/10/25 07:21:35;;;;;;;1999.90;999.90;;;;;;;13.69;100.00;98401.78;4963188;28;20114;-79
2022/10/25 07:24:01;;;;;;;1999.90;999.90;;;;;;;13.68;100.00;98394.66;4961539;28;20054;-79
2022/10/25 07:26:32;;;;;;;1999.90;999.90;;;;;;;13.73;100.00;98391.78;4958709;28;20028;-79
2022/10/25 07:29:00;;;;;;;1999.90;999.90;;;;;;;13.74;100.00;98390.69;4958656;28;20478;-79
2022/10/25 07:31:28;;;;;;;1999.90;999.90;;;;;;;13.86;100.00;98391.78;4958088;28;20544;-79
2022/10/25 07:33:57;;;;;;;1999.90;999.90;;;;;;;13.83;100.00;98395.16;4959396;28;20094;-78
2022/10/25 07:36:23;;;;;;;1999.90;999.90;;;;;;;13.76;100.00;98388.44;4960683;28;20019;-79
2022/10/25 07:38:48;;;;;;;1999.90;999.90;;;;;;;13.74;100.00;98383.25;4960179;28;20059;-79
2022/10/25 07:41:14;;;;;;;1999.90;999.90;;;;;;;13.69;100.00;98382.53;4958262;28;20054;-76
2022/10/25 07:43:42;;;;;;;1999.90;999.90;;;;;;;13.72;100.00;98390.97;4957898;28;20501;-79
2022/10/25 07:46:07;;;;;;;1999.90;999.90;;;;;;;13.69;100.00;98396.28;4959935;28;20102;-79
2022/10/25 07:48:33;;;;;;;1999.90;999.90;;;;;;;13.68;100.00;98394.66;4957319;28;20485;-78
2022/10/25 07:51:19;;;;;;;1999.90;999.90;;;;;;;13.86;100.00;98397.28;4957445;28;20027;-78
2022/10/25 07:53:44;;;;;;;1999.90;999.90;;;;;;;13.91;100.00;98388.94;4958802;28;20035;-79
2022/10/25 07:56:15;;;;;;;1999.90;999.90;;;;;;;13.93;100.00;98394.97;4958283;28;20384;-80
2022/10/25 07:58:40;;;;;;;1999.90;999.90;;;;;;;14.00;100.00;98396.47;4956061;28;20027;-79
2022/10/25 08:01:08;;;;;;;1999.90;999.90;;;;;;;14.05;100.00;98402.69;4958027;28;20031;-79
2022/10/25 08:03:34;;;;;;;1999.90;999.90;;;;;;;14.18;100.00;98401.88;4956742;28;20058;-79
2022/10/25 08:06:00;;;;;;;1999.90;999.90;;;;;;;14.30;100.00;98402.16;4955371;28;20069;-78
2022/10/25 08:08:25;;;;;;;1999.90;999.90;;;;;;;14.45;100.00;98409.28;4955225;28;20046;-78
2022/10/25 08:10:51;;;;;;;1999.90;999.90;;;;;;;14.58;100.00;98408.44;4955426;28;20469;-79
2022/10/25 08:13:17;;;;;;;1999.90;999.90;;;;;;;14.64;100.00;98412.69;4955300;28;20027;-79
2022/10/25 08:15:54;;;;;;;1999.90;999.90;;;;;;;14.67;100.00;98412.09;4954705;28;20448;-76
2022/10/25 08:18:19;;;;;;;1999.90;999.90;;;;;;;14.63;100.00;98411.06;4954749;28;20031;-79
2022/10/25 08:20:45;;;;;;;1999.90;999.90;;;;;;;14.57;100.00;98411.47;4955113;28;20030;-77
2022/10/25 08:23:11;;;;;;;1999.90;999.90;;;;;;;14.52;100.00;98415.19;4955070;28;20036;-79
2022/10/25 08:25:36;;;;;;;1999.90;999.90;;;;;;;14.54;100.00;98410.19;4954317;28;20090;-79
2022/10/25 08:28:02;;;;;;;1999.90;999.90;;;;;;;14.60;100.00;98405.38;4955287;28;20114;-78
2022/10/25 08:30:27;;;;;;;1999.90;999.90;;;;;;;14.41;100.00;98397.25;4956072;28;20035;-79
2022/10/25 08:32:52;;;;;;;1999.90;999.90;;;;;;;14.41;100.00;98400.00;4955196;28;20038;-79
2022/10/25 08:35:17;;;;;;;1999.90;999.90;;;;;;;14.47;100.00;98394.06;4954913;28;20077;-78
2022/10/25 08:37:43;;;;;;;1999.90;999.90;;;;;;;14.60;100.00;98395.16;4953623;28;20031;-78
2022/10/25 08:40:17;;;;;;;1999.90;999.90;;;;;;;14.75;100.00;98397.59;4955372;28;20477;-78
2022/10/25 08:43:12;;;;;;;1999.90;999.90;;;;;;;14.73;100.00;98393.50;4956024;28;20042;-79
2022/10/25 08:45:45;;;;;;;1999.90;999.90;;;;;;;14.72;100.00;98398.19;4954977;28;20047;-79
2022/10/25 08:48:16;;;;;;;1999.90;999.90;;;;;;;14.89;100.00;98394.75;4954456;28;20046;-77
2022/10/25 08:50:49;;;;;;;1999.90;999.90;;;;;;;15.12;100.00;98404.66;4954765;28;20521;-78
2022/10/25 08:53:21;;;;;;;1999.90;999.90;;;;;;;15.30;100.00;98409.16;4953579;28;20111;-79
2022/10/25 08:55:49;;;;;;;1999.90;999.90;;;;;;;15.68;100.00;98401.28;4952930;28;20781;-78
2022/10/25 08:58:22;;;;;;;1999.90;999.90;;;;;;;15.57;100.00;98394.41;4954817;28;20031;-78
2022/10/25 09:00:48;;;;;;;1999.90;999.90;;;;;;;15.95;100.00;98403.00;4954479;28;20031;-78
2022/10/25 09:03:23;;;;;;;1999.90;999.90;;;;;;;16.31;100.00;98391.75;4959749;28;20059;-80
2022/10/25 09:06:19;;;;;;;1999.90;999.90;;;;;;;16.30;100.00;98387.38;4962834;28;20042;-79
2022/10/25 09:09:05;;;;;;;1999.90;999.90;;;;;;;16.81;100.00;98392.16;4954606;28;20114;-79
2022/10/25 09:11:58;;;;;;;1999.90;999.90;;;;;;;17.28;100.00;98399.44;4956390;28;20520;-79
2022/10/25 09:14:42;;;;;;;1999.90;999.90;;;;;;;18.18;100.00;98412.03;4956390;28;20043;-79
2022/10/25 09:17:22;;;;;;;1999.90;999.90;;;;;;;19.55;100.00;98414.91;4957077;28;20484;-80
2022/10/25 09:20:14;;;;;;;1999.90;999.90;;;;;;;20.37;100.00;98415.75;4969869;28;20046;-80
2022/10/25 09:22:41;;;;;;;1999.90;999.90;;;;;;;21.85;100.00;98420.97;4979088;28;20030;-80
2022/10/25 09:25:18;;;;;;;1999.90;999.90;;;;;;;22.97;92.49;98435.31;4978866;28;20019;-81
2022/10/25 09:28:02;;;;;;;1999.90;999.90;;;;;;;23.76;83.33;98441.34;4978315;28;20114;-81
2022/10/25 09:30:36;;;;;;;1999.90;999.90;;;;;;;25.26;74.09;98447.06;4977535;28;20030;-79
2022/10/25 09:33:07;;;;;;;1999.90;999.90;;;;;;;25.64;71.51;98445.97;4977004;28;20503;-78
2022/10/25 09:35:38;;;;;;;1999.90;999.90;;;;;;;24.23;72.08;98441.06;4978037;28;20035;-80
2022/10/25 09:38:19;;;;;;;1999.90;999.90;;;;;;;22.69;78.77;98438.25;4977253;28;20077;-79
2022/10/25 09:40:48;;;;;;;1999.90;999.90;;;;;;;21.88;83.50;98425.88;4978011;28;20081;-81
2022/10/25 09:43:19;;;;;;;1999.90;999.90;;;;;;;21.69;89.04;98420.13;4978957;28;20031;-81
2022/10/25 09:45:49;;;;;;;1999.90;999.90;;;;;;;20.96;93.49;98427.13;4981440;28;20042;-81
2022/10/25 09:48:24;;;;;;;1999.90;999.90;;;;;;;20.46;97.98;98427.56;4980278;28;20054;-80
2022/10/25 09:50:52;;;;;;;;;;;;;;;19.91;100.00;98437.22;4981348;28;20096;-79
2022/10/25 09:53:18;;;;;;;1999.90;999.90;;;;;;;19.76;100.00;98440.69;4980689;28;19918;-79
2022/10/25 09:55:53;;;;;;;1999.90;999.90;;;;;;;19.35;100.00;98446.28;4978668;28;20383;-81
2022/10/25 09:58:24;;;;;;;1999.90;999.90;;;;;;;19.68;100.00;98436.00;4980574;28;20489;-79
2022/10/25 10:00:52;;;;;;;1999.90;999.90;;;;;;;19.25;100.00;98437.22;4980235;28;20062;-79
2022/10/25 10:03:19;;;;;;;1999.90;999.90;;;;;;;18.95;100.00;98438.44;4980566;28;20031;-79
2022/10/25 10:05:49;;;;;;;1999.90;999.90;;;;;;;18.44;100.00;98442.38;4983380;28;20022;-81
2022/10/25 10:08:14;;;;;;;1999.90;999.90;;;;;;;17.59;100.00;98440.75;4984585;28;20026;-81
2022/10/25 10:10:41;;;;;;;1999.90;999.90;;;;;;;17.19;100.00;98439.31;4986169;28;20029;-81
2022/10/25 10:13:46;;;;;;;1999.90;999.90;;;;;;;17.38;100.00;98434.25;4984609;28;20146;-80
2022/10/25 10:16:34;;;;;;;1999.90;999.90;;;;;;;17.65;100.00;98440.25;4969082;28;20085;-81
2022/10/25 10:19:11;;;;;;;1999.90;999.90;;;;;;;17.68;100.00;98433.22;4977282;28;20402;-81
2022/10/25 10:21:42;;;;;;;1999.90;999.90;;;;;;;17.67;100.00;98435.19;4982993;28;20037;-80
2022/10/25 10:24:19;;;;;;;1999.90;999.90;;;;;;;17.49;100.00;98432.75;4982223;28;20035;-80
2022/10/25 10:26:53;;;;;;;1999.90;999.90;;;;;;;17.67;100.00;98437.13;4983314;28;20037;-81
2022/10/25 10:29:30;;;;;;;1999.90;999.90;;;;;;;17.55;100.00;98434.22;4983312;28;20019;-81
2022/10/25 10:32:01;;;;;;;1999.90;999.90;;;;;;;17.54;100.00;98433.38;4972731;28;20034;-81
2022/10/25 10:34:41;;;;;;;1999.90;999.90;;;;;;;17.45;100.00;98429.81;4986767;28;20038;-82
2022/10/25 10:37:16;;;;;;;1999.90;999.90;;;;;;;17.36;100.00;98420.75;4987071;28;20030;-81
2022/10/25 10:39:55;;;;;;;1999.90;999.90;;;;;;;17.30;100.00;98429.53;4985160;28;20085;-81
2022/10/25 10:42:42;;;;;;;1999.90;999.90;;;;;;;17.28;100.00;98426.28;4984262;28;20481;-81
2022/10/25 10:45:07;;;;;;;1999.90;999.90;;;;;;;16.99;100.00;98419.47;4982322;28;20047;-81
2022/10/25 10:47:43;;;;;;;1999.90;999.90;;;;;;;16.92;100.00;98413.63;4983040;28;20033;-82
2022/10/25 10:50:27;;;;;;;1999.90;999.90;;;;;;;17.05;100.00;98420.94;4982997;28;20022;-80
2022/10/25 10:53:00;;;;;;;1999.90;999.90;;;;;;;17.34;100.00;98416.69;4982558;28;20058;-81
2022/10/25 10:55:31;;;;;;;1999.90;999.90;;;;;;;17.23;100.00;98412.66;4981653;28;20034;-82
2022/10/25 10:58:05;;;;;;;1999.90;999.90;;;;;;;17.05;100.00;98404.34;4983594;28;20087;-82